Time;durP1;ratioP1;P1;durP2;ratioP2;P2;SDS_P1;SDS_P2;PMS_P1;PMS_P2;Temp;Humidity;BMP_temperature;BMP_pressure;BME280_temperature;BME280_humidity;BME280_pressure;Samples;Min_cycle;Max_cycle;Signal;HPM_P1;HPM_P2
2022/12/27 00:02:05;;;;;;;8.70;2.20;;;;;;;6.20;45.09;101787.53;7395291;19;19994;-58
2022/12/27 00:04:37;;;;;;;9.35;2.45;;;;;;;6.21;45.31;101788.34;7395220;19;19998;-59
2022/12/27 00:07:03;;;;;;;7.10;1.83;;;;;;;6.31;44.75;101786.34;7396082;19;20017;-58
2022/12/27 00:09:29;;;;;;;10.95;1.98;;;;;;;6.28;44.66;101792.34;7396995;19;20043;-59
2022/12/27 00:11:55;;;;;;;10.77;2.28;;;;;;;6.24;44.92;101798.63;7396607;19;20021;-59
2022/12/27 00:14:21;;;;;;;11.85;1.80;;;;;;;6.22;44.76;101796.19;7395399;19;19994;-60
2022/12/27 00:16:46;;;;;;;14.30;2.20;;;;;;;6.25;44.85;101784.78;7395863;19;20597;-61
2022/12/27 00:19:12;;;;;;;9.52;2.13;;;;;;;6.30;44.87;101790.13;7396414;19;20452;-59
2022/12/27 00:21:38;;;;;;;10.13;2.05;;;;;;;6.31;44.63;101793.69;7396266;19;19987;-59
2022/12/27 00:24:04;;;;;;;9.88;1.80;;;;;;;6.29;44.78;101791.25;7394326;19;20339;-59
2022/12/27 00:26:32;;;;;;;10.32;2.20;;;;;;;6.32;44.80;101793.34;7396491;19;19990;-60
2022/12/27 00:28:58;;;;;;;8.30;2.17;;;;;;;6.36;44.65;101795.50;7396149;19;20007;-60
2022/12/27 00:31:26;;;;;;;7.95;2.25;;;;;;;6.26;44.96;101799.94;7395616;19;20549;-59
2022/12/27 00:33:53;;;;;;;7.25;1.90;;;;;;;6.25;44.68;101801.03;7393315;19;20023;-60
2022/12/27 00:36:22;;;;;;;7.93;2.00;;;;;;;5.94;45.53;101809.47;7395344;19;19995;-60
2022/12/27 00:38:48;;;;;;;9.60;2.42;;;;;;;6.09;45.26;101800.41;7396650;19;20288;-60
2022/12/27 00:41:14;;;;;;;12.05;2.00;;;;;;;5.99;45.36;101807.81;7393929;19;20343;-61
2022/12/27 00:43:40;;;;;;;12.70;2.28;;;;;;;6.07;45.10;101809.91;7394848;19;19998;-60
2022/12/27 00:46:07;;;;;;;12.75;1.88;;;;;;;6.05;45.22;101810.19;7396178;19;20487;-60
2022/12/27 00:48:33;;;;;;;12.88;2.25;;;;;;;6.03;45.19;101809.66;7396133;19;19986;-60
2022/12/27 00:51:05;;;;;;;7.97;2.28;;;;;;;5.96;45.50;101816.50;7394413;19;20002;-60
2022/12/27 00:53:32;;;;;;;8.40;1.90;;;;;;;6.11;45.17;101803.63;7394096;19;20002;-60
2022/12/27 00:55:58;;;;;;;9.75;1.90;;;;;;;5.93;45.49;101818.69;7393430;19;20031;-60
2022/12/27 00:58:24;;;;;;;7.72;1.90;;;;;;;5.97;45.60;101812.72;7394974;19;20350;-60
2022/12/27 01:00:50;;;;;;;10.73;1.88;;;;;;;6.05;45.12;101826.44;7395289;19;20002;-61
2022/12/27 01:03:17;;;;;;;8.10;2.20;;;;;;;5.85;45.80;101824.72;7392203;19;19999;-61
2022/12/27 01:05:43;;;;;;;9.52;2.55;;;;;;;6.01;45.36;101817.28;7395649;19;20003;-59
2022/12/27 01:08:10;;;;;;;13.65;1.98;;;;;;;5.99;45.51;101811.31;7395195;19;19997;-60
2022/12/27 01:10:35;;;;;;;11.70;1.92;;;;;;;5.99;45.60;101824.06;7394989;19;20102;-60
2022/12/27 01:13:03;;;;;;;7.72;2.00;;;;;;;6.10;45.30;101834.53;7393912;19;20006;-60
2022/12/27 01:15:28;;;;;;;9.80;2.17;;;;;;;6.13;45.22;101820.41;7393574;19;20476;-60
2022/12/27 01:17:54;;;;;;;7.43;1.88;;;;;;;6.01;45.53;101819.16;7393743;19;19999;-59
2022/12/27 01:20:21;;;;;;;6.47;1.88;;;;;;;6.07;45.35;101823.44;7391152;19;20035;-59
2022/12/27 01:22:46;;;;;;;10.10;2.17;;;;;;;6.21;45.26;101829.00;7392013;19;20466;-61
2022/12/27 01:25:12;;;;;;;11.02;2.42;;;;;;;6.12;45.42;101823.41;7393234;19;20011;-60
2022/12/27 01:27:38;;;;;;;9.75;2.40;;;;;;;6.19;45.38;101833.91;7392982;19;19999;-60
2022/12/27 01:30:05;;;;;;;10.93;1.92;;;;;;;5.85;46.01;101827.44;7392824;19;20479;-61
2022/12/27 01:32:32;;;;;;;8.95;2.28;;;;;;;5.86;46.03;101822.81;7393428;19;20467;-61
2022/12/27 01:34:58;;;;;;;8.25;1.90;;;;;;;5.87;46.23;101833.38;7392271;19;20003;-61
2022/12/27 01:37:27;;;;;;;11.40;2.03;;;;;;;5.80;46.13;101830.19;7392852;19;20006;-61
2022/12/27 01:39:53;;;;;;;10.23;2.15;;;;;;;5.74;46.25;101829.44;7393964;19;20396;-60
2022/12/27 01:45:29;;;;;;;;;;;;;;;5.80;46.07;101824.75;7393343;19;20005;-59
2022/12/27 01:48:03;;;;;;;9.27;1.95;;;;;;;5.80;46.16;101824.75;7393334;19;19919;-60
2022/12/27 01:50:37;;;;;;;9.48;2.30;;;;;;;5.86;45.98;101829.06;7392093;19;20018;-58
2022/12/27 01:53:16;;;;;;;;;;;;;;;5.99;45.73;101834.91;7392865;19;20009;-58
2022/12/27 01:56:05;;;;;;;10.38;2.28;;;;;;;5.99;45.75;101843.84;7391173;19;19921;-61
2022/12/27 01:58:40;;;;;;;8.00;2.10;;;;;;;5.92;46.02;101846.88;7394280;19;20008;-59
2022/12/27 02:01:10;;;;;;;10.02;2.55;;;;;;;5.81;46.44;101839.94;7393641;19;20016;-60
2022/12/27 02:03:40;;;;;;;9.07;2.25;;;;;;;5.74;46.37;101834.00;7392553;19;20003;-59
2022/12/27 02:06:09;;;;;;;11.30;2.38;;;;;;;5.81;46.35;101852.66;7388579;19;20017;-60
2022/12/27 02:08:45;;;;;;;11.45;2.20;;;;;;;5.86;46.32;101848.03;7388114;19;20027;-60
2022/12/27 02:11:12;;;;;;;13.00;2.40;;;;;;;5.92;46.13;101849.59;7386309;19;19999;-59
2022/12/27 02:13:41;;;;;;;10.43;2.45;;;;;;;6.02;46.05;101843.28;7387546;19;20006;-59
2022/12/27 02:16:16;;;;;;;7.15;2.30;;;;;;;5.77;46.35;101843.50;7388758;19;19998;-59
2022/12/27 02:18:43;;;;;;;14.30;2.58;;;;;;;5.99;46.03;101846.53;7388213;19;20459;-60
2022/12/27 02:21:09;;;;;;;11.13;2.40;;;;;;;6.05;45.92;101841.91;7389658;19;20005;-58
2022/12/27 02:24:07;;;;;;;9.20;2.35;;;;;;;6.05;45.72;101850.03;7388770;19;20046;-58
2022/12/27 02:26:36;;;;;;;12.43;2.63;;;;;;;5.98;45.93;101844.16;7385911;19;19991;-60
2022/12/27 02:29:11;;;;;;;8.82;2.10;;;;;;;5.98;45.99;101855.00;7389968;19;20003;-60
2022/12/27 02:31:50;;;;;;;9.65;2.80;;;;;;;6.00;46.07;101859.00;7390325;19;20027;-60
2022/12/27 02:34:29;;;;;;;11.18;2.38;;;;;;;5.86;46.22;101853.44;7393797;19;20462;-59
2022/12/27 02:37:00;;;;;;;9.82;2.70;;;;;;;5.90;46.27;101856.41;7395338;19;20005;-59
2022/12/27 02:39:28;;;;;;;11.27;2.65;;;;;;;5.74;46.74;101855.69;7395960;19;20009;-59
2022/12/27 02:53:11;;;;;;;9.18;2.97;;;;;;;5.78;46.67;101853.25;7395476;19;19914;-58
2022/12/27 02:59:06;;;;;;;11.57;2.65;;;;;;;5.79;46.85;101844.81;7396259;19;20078;-58
2022/12/27 03:04:59;;;;;;;14.90;3.22;;;;;;;5.90;46.53;101845.56;7393786;19;20020;-58
2022/12/27 03:07:30;;;;;;;12.68;3.00;;;;;;;5.75;46.81;101851.91;7395858;19;20051;-60
2022/12/27 03:15:56;;;;;;;10.68;3.03;;;;;;;5.94;46.68;101849.31;7394961;19;20002;-58
2022/12/27 03:18:53;;;;;;;11.25;3.58;;;;;;;5.80;46.97;101865.41;7393588;19;20009;-57
2022/12/27 03:26:57;;;;;;;9.77;2.88;;;;;;;6.01;46.63;101862.53;7394795;19;20064;-60
2022/12/27 03:35:11;;;;;;;10.57;2.95;;;;;;;5.89;46.90;101876.44;7393157;19;20027;-59
2022/12/27 03:43:09;;;;;;;12.52;3.42;;;;;;;5.83;47.29;101875.69;7395205;19;20006;-59
2022/12/27 03:43:29;;;;;;;9.98;2.92;;;;;;;5.83;47.55;101867.56;7391951;19;20061;-59
2022/12/27 03:49:01;;;;;;;13.25;3.72;;;;;;;5.99;47.21;101870.13;7394043;19;20003;-58
2022/12/27 03:51:31;;;;;;;9.80;3.13;;;;;;;6.08;46.92;101871.16;7392539;19;20022;-58
2022/12/27 03:54:07;;;;;;;15.57;3.95;;;;;;;6.09;46.99;101879.00;7393506;19;20020;-59
2022/12/27 03:56:33;;;;;;;13.63;3.90;;;;;;;5.92;47.33;101879.38;7391544;19;20011;-59
2022/12/27 03:59:01;;;;;;;11.65;3.70;;;;;;;5.85;47.51;101884.34;7394144;19;19995;-61
2022/12/27 04:01:26;;;;;;;11.45;3.65;;;;;;;5.78;47.73;101883.84;7393875;19;20006;-61
2022/12/27 04:03:52;;;;;;;19.83;3.90;;;;;;;5.96;47.46;101878.84;7391131;19;20002;-58
2022/12/27 04:06:18;;;;;;;13.75;3.78;;;;;;;6.04;47.03;101872.81;7392177;19;20002;-58
2022/12/27 04:36:07;;;;;;;;;;;;;;;6.03;47.44;101901.03;7393139;19;20304;-59
2022/12/27 04:38:32;;;;;;;12.00;3.80;;;;;;;6.15;47.07;101914.19;7392475;19;20324;-58
2022/12/27 04:55:23;;;;;;;13.48;3.40;;;;;;;6.20;47.50;101923.09;7387378;19;20492;-59
2022/12/27 04:57:49;;;;;;;11.52;3.40;;;;;;;6.09;47.81;101930.50;7390511;19;19998;-58
2022/12/27 05:03:05;;;;;;;9.70;3.45;;;;;;;6.22;47.62;101931.75;7390982;19;20006;-59
2022/12/27 05:05:32;;;;;;;9.90;2.90;;;;;;;6.27;47.44;101947.97;7388872;19;20054;-59
2022/12/27 05:16:13;;;;;;;;;;;;;;;6.25;48.66;101963.72;7391643;19;19998;-60
2022/12/27 05:18:38;;;;;;;12.48;3.67;;;;;;;6.39;48.12;101982.06;7391227;19;19919;-60
2022/12/27 05:21:06;;;;;;;11.10;3.40;;;;;;;6.32;48.30;101968.81;7391801;19;20058;-60
2022/12/27 05:26:24;;;;;;;16.42;3.58;;;;;;;6.12;48.72;101965.16;7391803;19;20057;-59
2022/12/27 05:28:51;;;;;;;10.93;3.30;;;;;;;6.22;48.54;101969.69;7391435;19;20062;-59
2022/12/27 05:31:18;;;;;;;11.60;3.35;;;;;;;6.22;48.59;101969.69;7391359;19;20019;-59
2022/12/27 05:33:43;;;;;;;16.90;3.63;;;;;;;6.08;48.78;101964.13;7390071;19;20098;-59
2022/12/27 05:36:09;;;;;;;10.38;3.35;;;;;;;6.11;48.74;101973.59;7390587;19;20009;-58
2022/12/27 05:38:35;;;;;;;12.15;3.30;;;;;;;6.32;48.41;101982.38;7390911;19;20009;-59
2022/12/27 05:41:02;;;;;;;11.15;3.42;;;;;;;6.35;48.42;101987.25;7390961;19;19999;-59
2022/12/27 05:43:28;;;;;;;9.57;3.22;;;;;;;6.51;48.05;101987.94;7387896;19;20006;-60
2022/12/27 05:45:54;;;;;;;13.93;3.75;;;;;;;6.57;47.83;101986.78;7389319;19;20019;-60
2022/12/27 05:48:21;;;;;;;13.95;4.22;;;;;;;6.35;48.20;101994.56;7390627;19;20110;-59
2022/12/27 05:50:47;;;;;;;11.40;4.35;;;;;;;6.28;48.45;101994.91;7390562;19;20523;-59
2022/12/27 05:53:13;;;;;;;13.77;4.90;;;;;;;6.19;48.76;101997.38;7388577;19;20029;-59
2022/12/27 05:55:39;;;;;;;12.50;4.15;;;;;;;6.25;48.34;102007.09;7389139;19;20011;-60
2022/12/27 05:58:04;;;;;;;10.07;3.75;;;;;;;6.35;48.40;101997.28;7388211;19;20355;-59
2022/12/27 06:00:30;;;;;;;12.50;3.75;;;;;;;6.25;48.40;102000.88;7390616;19;20015;-60
2022/12/27 06:02:56;;;;;;;11.02;2.95;;;;;;;6.25;48.38;102001.69;7389923;19;20475;-60
2022/12/27 06:05:22;;;;;;;10.40;3.35;;;;;;;6.26;48.37;101997.06;7386663;19;20002;-60
2022/12/27 06:07:48;;;;;;;13.70;3.67;;;;;;;6.26;48.42;102011.44;7396332;19;20003;-60
2022/12/27 06:10:14;;;;;;;10.73;3.63;;;;;;;6.14;48.76;102010.97;7395361;19;20487;-60
2022/12/27 06:12:40;;;;;;;9.55;3.45;;;;;;;6.24;48.34;101999.25;7396434;19;20087;-60
2022/12/27 06:15:06;;;;;;;7.32;3.35;;;;;;;6.19;48.74;102015.56;7393202;19;20006;-59
2022/12/27 06:17:32;;;;;;;10.10;3.78;;;;;;;6.18;48.66;102019.38;7393460;19;20535;-59
2022/12/27 06:19:57;;;;;;;7.82;3.22;;;;;;;6.23;48.52;102013.91;7395129;19;20006;-58
2022/12/27 06:22:24;;;;;;;11.80;3.60;;;;;;;6.15;48.68;102015.31;7396978;19;20011;-58
2022/12/27 06:24:49;;;;;;;12.80;3.55;;;;;;;6.19;48.32;102016.34;7392953;19;20002;-60
2022/12/27 06:27:15;;;;;;;13.85;3.63;;;;;;;6.07;48.61;102026.75;7395023;19;20325;-59
2022/12/27 06:29:41;;;;;;;8.07;2.85;;;;;;;6.06;48.72;102019.69;7396889;19;20007;-59
2022/12/27 06:32:06;;;;;;;12.30;3.63;;;;;;;6.18;48.40;102033.72;7394875;19;20460;-60
2022/12/27 06:34:32;;;;;;;12.63;3.28;;;;;;;6.10;48.43;102032.41;7393782;19;19995;-58
2022/12/27 06:36:58;;;;;;;11.85;3.17;;;;;;;6.06;48.70;102030.53;7393686;19;20013;-59
2022/12/27 06:39:24;;;;;;;11.15;3.30;;;;;;;5.98;48.88;102031.16;7394783;19;20432;-59
2022/12/27 06:41:53;;;;;;;9.77;2.92;;;;;;;5.90;49.02;102033.34;7396428;19;20463;-59
2022/12/27 06:44:19;;;;;;;11.30;3.03;;;;;;;5.91;48.97;102034.16;7394529;19;20005;-59
2022/12/27 06:46:45;;;;;;;8.73;2.60;;;;;;;5.99;48.74;102030.84;7396279;19;20018;-60
2022/12/27 06:49:11;;;;;;;9.18;2.75;;;;;;;6.05;48.63;102032.44;7396162;19;20099;-60
2022/12/27 06:51:36;;;;;;;7.20;2.58;;;;;;;5.96;48.63;102038.72;7396146;19;20467;-59
2022/12/27 06:54:02;;;;;;;8.10;2.72;;;;;;;6.04;48.48;102044.38;7394231;19;20347;-58
2022/12/27 06:56:28;;;;;;;9.18;2.65;;;;;;;5.91;48.74;102034.97;7393826;19;20335;-59
2022/12/27 06:58:53;;;;;;;7.88;2.00;;;;;;;5.86;48.81;102040.41;7396025;19;20050;-59
2022/12/27 07:01:22;;;;;;;9.88;2.67;;;;;;;5.84;48.89;102050.72;7396057;19;19999;-59
2022/12/27 07:03:53;;;;;;;7.53;2.30;;;;;;;5.71;49.24;102045.91;7394118;19;19999;-59
2022/12/27 07:06:20;;;;;;;13.23;2.50;;;;;;;5.90;48.79;102065.84;7395507;19;20013;-59
2022/12/27 07:08:48;;;;;;;11.40;2.80;;;;;;;5.86;48.97;102075.66;7395515;19;20352;-59
2022/12/27 07:11:15;;;;;;;11.50;2.42;;;;;;;5.89;48.75;102063.41;7394842;19;20070;-58
2022/12/27 07:13:44;;;;;;;7.65;2.40;;;;;;;5.98;48.66;102082.66;7394173;19;19999;-59
2022/12/27 07:16:16;;;;;;;8.98;2.30;;;;;;;6.20;48.18;102085.75;7394918;19;19999;-59
2022/12/27 07:18:42;;;;;;;8.43;2.63;;;;;;;6.13;48.36;102082.56;7393439;19;19999;-58
2022/12/27 07:21:17;;;;;;;10.48;2.30;;;;;;;5.98;48.85;102093.47;7395019;19;20069;-59
2022/12/27 07:23:44;;;;;;;11.35;2.47;;;;;;;6.04;48.51;102095.06;7392447;19;19999;-59
2022/12/27 07:26:12;;;;;;;9.52;2.50;;;;;;;5.80;49.26;102093.00;7393411;19;19994;-57
2022/12/27 07:28:38;;;;;;;7.25;2.13;;;;;;;5.93;48.84;102097.03;7394692;19;20330;-57
2022/12/27 07:31:16;;;;;;;11.38;2.30;;;;;;;5.99;48.92;102100.50;7392796;19;20074;-58
2022/12/27 07:33:42;;;;;;;6.10;2.05;;;;;;;5.98;48.82;102109.75;7391576;19;20019;-57
2022/12/27 07:36:13;;;;;;;11.68;2.70;;;;;;;5.91;48.85;102120.88;7394651;19;20018;-58
2022/12/27 07:38:38;;;;;;;8.48;2.45;;;;;;;5.91;48.91;102120.88;7394182;19;20356;-58
2022/12/27 07:41:04;;;;;;;8.27;2.00;;;;;;;5.99;49.18;102133.03;7393907;19;20000;-59
2022/12/27 07:43:34;;;;;;;10.38;2.50;;;;;;;5.98;48.93;102132.22;7393359;19;20003;-59
2022/12/27 07:46:12;;;;;;;12.20;2.90;;;;;;;5.96;48.82;102130.88;7394433;19;19998;-59
2022/12/27 07:48:39;;;;;;;7.68;2.50;;;;;;;5.94;49.09;102147.41;7393932;19;20023;-57
2022/12/27 07:51:05;;;;;;;11.23;3.22;;;;;;;5.85;49.44;102155.31;7394872;19;20007;-57
2022/12/27 07:53:31;;;;;;;14.75;3.05;;;;;;;5.88;49.21;102149.34;7393183;19;20002;-58
2022/12/27 07:55:57;;;;;;;10.65;2.90;;;;;;;5.82;49.20;102153.13;7392316;19;20020;-58
2022/12/27 07:58:23;;;;;;;10.07;3.03;;;;;;;5.64;49.64;102153.72;7393755;19;20495;-59
2022/12/27 08:00:51;;;;;;;11.18;3.22;;;;;;;5.80;49.39;102166.16;7391870;19;20296;-60
2022/12/27 08:03:17;;;;;;;11.52;2.80;;;;;;;5.63;49.86;102157.53;7391871;19;20003;-60
2022/12/27 08:05:48;;;;;;;9.82;3.28;;;;;;;5.85;49.42;102155.31;7393509;19;20028;-60
2022/12/27 08:08:16;;;;;;;10.80;3.28;;;;;;;5.76;49.53;102167.81;7392257;19;20007;-59
2022/12/27 08:10:43;;;;;;;11.95;3.00;;;;;;;5.80;49.30;102174.28;7391515;19;20019;-60
2022/12/27 08:13:08;;;;;;;13.15;3.10;;;;;;;6.04;48.95;102169.06;7390714;19;20002;-60
2022/12/27 08:15:36;;;;;;;8.85;3.15;;;;;;;6.09;48.71;102177.19;7392907;19;20321;-59
2022/12/27 08:18:02;;;;;;;9.77;3.05;;;;;;;6.01;48.86;102177.75;7391468;19;20013;-60
2022/12/27 08:20:28;;;;;;;11.75;3.50;;;;;;;6.04;48.80;102176.38;7392730;19;19999;-60
2022/12/27 08:22:54;;;;;;;10.20;3.00;;;;;;;5.81;49.21;102173.22;7389766;19;19998;-61
2022/12/27 08:25:20;;;;;;;9.73;3.00;;;;;;;5.94;49.01;102178.06;7391174;19;20107;-60
2022/12/27 08:27:46;;;;;;;10.80;2.65;;;;;;;5.93;48.95;102179.13;7392743;19;20038;-61
2022/12/27 08:30:12;;;;;;;14.75;3.70;;;;;;;5.98;48.76;102163.94;7393106;19;19998;-60
2022/12/27 08:32:45;;;;;;;10.85;2.92;;;;;;;6.05;48.84;102178.00;7391512;19;19998;-60
2022/12/27 08:35:11;;;;;;;12.02;3.33;;;;;;;5.90;49.17;102174.25;7391377;19;20007;-60
2022/12/27 08:37:36;;;;;;;11.50;2.90;;;;;;;5.94;49.12;102179.94;7391075;19;20005;-60
2022/12/27 08:40:02;;;;;;;11.40;3.00;;;;;;;5.97;49.07;102173.16;7390496;19;20467;-61
2022/12/27 08:42:28;;;;;;;10.10;3.20;;;;;;;6.07;48.71;102182.06;7392263;19;20076;-60
2022/12/27 08:44:54;;;;;;;10.00;2.95;;;;;;;5.93;49.29;102187.25;7391589;19;20072;-60
2022/12/27 08:47:20;;;;;;;13.48;3.10;;;;;;;5.87;49.42;102190.25;7390897;19;19997;-61
2022/12/27 08:49:45;;;;;;;9.50;3.00;;;;;;;6.00;49.02;102194.28;7390353;19;19995;-61
2022/12/27 08:52:11;;;;;;;11.75;3.20;;;;;;;6.02;49.10;102197.53;7390525;19;20467;-61
2022/12/27 08:54:37;;;;;;;12.05;3.25;;;;;;;6.18;48.82;102201.81;7390540;19;20027;-61
2022/12/27 08:57:02;;;;;;;12.38;3.20;;;;;;;6.11;49.11;102217.59;7388297;19;20019;-61
2022/12/27 08:59:38;;;;;;;9.30;3.17;;;;;;;6.05;49.25;102213.25;7388661;19;20027;-60
2022/12/27 09:02:03;;;;;;;7.95;2.85;;;;;;;6.15;49.20;102212.41;7390168;19;20482;-61
2022/12/27 09:04:29;;;;;;;9.85;3.35;;;;;;;6.08;49.18;102218.94;7390588;19;20006;-61
2022/12/27 09:06:55;;;;;;;11.13;3.47;;;;;;;6.17;49.02;102218.38;7391174;19;20002;-62
2022/12/27 09:09:20;;;;;;;11.55;3.10;;;;;;;6.23;48.82;102215.34;7391720;19;20027;-61
2022/12/27 09:11:46;;;;;;;11.77;3.53;;;;;;;6.22;49.04;102224.56;7391484;19;20015;-59
2022/12/27 09:14:12;;;;;;;10.98;2.97;;;;;;;6.28;48.69;102228.88;7389717;19;20032;-59
2022/12/27 09:16:38;;;;;;;8.88;3.15;;;;;;;6.12;48.83;102224.59;7388721;19;20069;-59
2022/12/27 09:19:04;;;;;;;11.93;4.25;;;;;;;6.12;49.00;102230.84;7391052;19;20137;-60
2022/12/27 09:21:31;;;;;;;16.15;4.45;;;;;;;6.25;48.67;102237.56;7391392;19;19999;-59
2022/12/27 09:23:57;;;;;;;10.13;3.45;;;;;;;6.35;48.42;102239.44;7389838;19;20003;-58
2022/12/27 09:26:26;;;;;;;11.00;3.65;;;;;;;6.35;48.57;102244.88;7389707;19;20005;-60
2022/12/27 09:28:53;;;;;;;9.15;3.08;;;;;;;6.42;48.38;102250.00;7392091;19;20002;-59
2022/12/27 09:31:20;;;;;;;11.50;3.13;;;;;;;6.59;47.97;102253.16;7390093;19;20501;-59
2022/12/27 09:33:46;;;;;;;12.65;3.38;;;;;;;6.60;48.25;102257.50;7389469;19;20003;-59
2022/12/27 09:36:15;;;;;;;14.18;3.17;;;;;;;6.92;47.57;102260.91;7390479;19;20350;-59
2022/12/27 09:38:41;;;;;;;9.38;3.03;;;;;;;6.95;47.40;102258.44;7391152;19;19998;-59
2022/12/27 09:41:53;;;;;;;9.93;3.50;;;;;;;6.78;47.63;102264.22;7391703;19;20023;-58
2022/12/27 09:44:34;;;;;;;9.68;3.05;;;;;;;6.71;48.11;102263.72;7393791;19;20019;-59
2022/12/27 09:47:09;;;;;;;15.30;3.35;;;;;;;6.76;47.97;102257.44;7397719;19;19995;-58
2022/12/27 09:49:40;;;;;;;12.13;3.20;;;;;;;6.74;47.92;102265.84;7398607;19;20003;-59
2022/12/27 09:52:36;;;;;;;11.25;3.15;;;;;;;6.82;47.92;102264.47;7396770;19;20007;-58
2022/12/27 09:55:19;;;;;;;11.43;3.25;;;;;;;6.80;48.16;102269.38;7394307;19;20085;-59
2022/12/27 09:57:46;;;;;;;12.00;3.40;;;;;;;6.93;47.88;102265.22;7395480;19;20013;-59
2022/12/27 10:00:19;;;;;;;13.30;3.78;;;;;;;6.90;48.00;102266.59;7397904;19;19999;-60
2022/12/27 10:02:49;;;;;;;13.10;3.03;;;;;;;6.88;47.86;102274.22;7397049;19;19994;-60
2022/12/27 10:05:21;;;;;;;12.25;3.38;;;;;;;6.98;47.71;102271.47;7395037;19;20054;-57
2022/12/27 10:07:53;;;;;;;10.85;3.20;;;;;;;6.92;47.74;102269.06;7397595;19;20070;-59
2022/12/27 10:10:30;;;;;;;12.40;2.88;;;;;;;6.84;48.02;102256.84;7397337;19;20006;-58
2022/12/27 10:13:09;;;;;;;11.45;3.00;;;;;;;6.89;47.83;102264.97;7396319;19;19999;-58
2022/12/27 10:15:38;;;;;;;9.55;2.90;;;;;;;6.92;47.61;102263.63;7397207;19;19999;-58
2022/12/27 10:18:17;;;;;;;10.65;3.40;;;;;;;6.98;47.61;102263.31;7394358;19;19999;-59
2022/12/27 10:21:15;;;;;;;13.68;3.28;;;;;;;7.16;47.38;102263.75;7397532;19;20002;-59
2022/12/27 10:23:46;;;;;;;10.90;2.83;;;;;;;7.04;47.60;102275.78;7393681;19;20003;-59
2022/12/27 10:26:15;;;;;;;12.55;3.25;;;;;;;7.08;47.52;102269.75;7396781;19;19998;-59
2022/12/27 10:28:46;;;;;;;10.80;3.25;;;;;;;7.17;47.19;102277.03;7395700;19;20006;-59
2022/12/27 10:31:16;;;;;;;8.98;2.78;;;;;;;7.17;47.33;102279.75;7396128;19;19986;-59
2022/12/27 10:33:43;;;;;;;11.35;2.83;;;;;;;7.18;47.39;102273.25;7394594;19;20014;-59
2022/12/27 10:36:13;;;;;;;11.27;3.28;;;;;;;7.12;47.50;102268.94;7395823;19;20070;-58
2022/12/27 10:38:39;;;;;;;12.50;2.70;;;;;;;7.15;47.54;102273.81;7396123;19;19995;-57
2022/12/27 10:41:31;;;;;;;13.27;3.30;;;;;;;7.07;47.46;102277.09;7394561;19;20002;-59
2022/12/27 10:43:56;;;;;;;9.40;3.00;;;;;;;7.08;47.62;102277.91;7394898;19;20009;-59
2022/12/27 10:46:25;;;;;;;10.30;2.90;;;;;;;7.18;47.40;102278.66;7395987;19;19995;-59
2022/12/27 10:48:58;;;;;;;18.10;3.85;;;;;;;7.20;47.34;102292.78;7395370;19;20475;-58
2022/12/27 10:51:35;;;;;;;9.37;3.07;;;;;;;7.08;47.67;102286.06;7395565;19;20084;-58
2022/12/27 10:54:09;;;;;;;10.57;3.05;;;;;;;7.26;47.18;102296.25;7392254;19;19991;-58
2022/12/27 10:56:43;;;;;;;13.25;3.40;;;;;;;7.40;47.08;102293.72;7394045;19;19999;-58
2022/12/27 10:59:24;;;;;;;16.30;3.38;;;;;;;7.37;47.04;102297.00;7395525;19;20003;-57
2022/12/27 11:01:58;;;;;;;12.38;2.95;;;;;;;7.35;47.28;102299.22;7396500;19;19999;-57
2022/12/27 11:04:25;;;;;;;11.50;3.00;;;;;;;7.40;46.92;102307.31;7393382;19;20395;-58
2022/12/27 11:07:17;;;;;;;16.27;3.35;;;;;;;7.29;47.38;102300.31;7395621;19;20006;-59
2022/12/27 11:09:44;;;;;;;14.95;2.75;;;;;;;7.19;47.59;102301.19;7396178;19;20007;-59
2022/12/27 11:12:15;;;;;;;13.10;3.60;;;;;;;7.36;47.14;102296.22;7398242;19;20085;-59
2022/12/27 11:15:18;;;;;;;10.00;3.20;;;;;;;7.47;46.83;102294.22;7396972;19;19998;-58
2022/12/27 11:17:50;;;;;;;15.68;3.10;;;;;;;7.54;46.68;102293.88;7392778;19;20507;-57
2022/12/27 11:20:23;;;;;;;13.27;3.33;;;;;;;7.53;46.66;102300.41;7394999;19;20547;-57
2022/12/27 11:23:04;;;;;;;9.27;2.97;;;;;;;7.51;46.68;102308.03;7395072;19;20007;-58
2022/12/27 11:25:30;;;;;;;14.18;3.08;;;;;;;7.48;47.04;102314.03;7391205;19;20002;-60
2022/12/27 11:28:04;;;;;;;12.73;3.15;;;;;;;7.59;46.62;102312.88;7390466;19;20096;-58
2022/12/27 11:30:35;;;;;;;9.98;2.83;;;;;;;7.58;46.78;102316.69;7394588;19;20027;-58
2022/12/27 11:33:18;;;;;;;13.07;3.53;;;;;;;7.56;46.77;102319.69;7393805;19;20037;-58
2022/12/27 11:35:48;;;;;;;13.38;2.92;;;;;;;7.73;46.57;102326.59;7393490;19;20475;-58
2022/12/27 11:38:25;;;;;;;9.95;2.83;;;;;;;7.85;46.25;102328.97;7392868;19;20006;-58
2022/12/27 11:40:57;;;;;;;15.57;3.38;;;;;;;7.83;46.34;102331.97;7393374;19;20014;-58
2022/12/27 11:43:26;;;;;;;9.02;3.22;;;;;;;7.71;46.47;102326.91;7393050;19;19994;-57
2022/12/27 11:45:54;;;;;;;11.35;3.15;;;;;;;7.77;46.41;102325.75;7393134;19;20459;-57
2022/12/27 11:48:32;;;;;;;8.98;2.80;;;;;;;7.72;46.55;102325.00;7394555;19;20003;-58
2022/12/27 11:51:09;;;;;;;11.70;2.72;;;;;;;7.79;46.46;102315.41;7393329;19;20455;-58
2022/12/27 11:54:00;;;;;;;11.90;3.30;;;;;;;7.83;46.32;102320.28;7392959;19;20003;-57
2022/12/27 11:56:28;;;;;;;10.45;2.97;;;;;;;7.93;46.07;102320.19;7392107;19;20003;-58
2022/12/27 11:59:39;;;;;;;11.48;2.85;;;;;;;7.84;46.33;102317.28;7394435;19;20027;-57
2022/12/27 12:02:20;;;;;;;11.35;3.67;;;;;;;7.56;46.72;102313.44;7391858;19;20009;-58
2022/12/27 12:05:07;;;;;;;15.10;3.25;;;;;;;7.59;46.83;102318.31;7391415;19;19991;-57
2022/12/27 12:07:52;;;;;;;10.32;3.00;;;;;;;7.69;46.60;102312.78;7391115;19;20015;-57
2022/12/27 12:10:36;;;;;;;11.18;3.50;;;;;;;7.42;47.23;102319.50;7392437;19;20026;-57
2022/12/27 12:13:23;;;;;;;;;;;;;;;7.33;47.07;102318.50;7392981;19;20029;-58
2022/12/27 12:16:10;;;;;;;12.35;3.38;;;;;;;7.47;47.20;102307.78;7391106;19;19970;-57
2022/12/27 12:18:54;;;;;;;12.07;3.42;;;;;;;7.49;47.08;102310.22;7391547;19;20002;-57
2022/12/27 12:21:32;;;;;;;;;;;;;;;7.41;47.05;102298.88;7391502;19;20062;-58
2022/12/27 12:24:11;;;;;;;15.85;3.72;;;;;;;7.45;46.95;102309.19;7391686;19;19913;-58
2022/12/27 12:26:55;;;;;;;12.40;3.35;;;;;;;7.41;47.00;102308.91;7391945;19;19991;-57
2022/12/27 12:29:36;;;;;;;12.95;3.20;;;;;;;7.52;46.77;102307.75;7393062;19;19998;-58
2022/12/27 12:32:07;;;;;;;13.50;3.67;;;;;;;7.49;46.85;102310.22;7391948;19;19999;-57
2022/12/27 12:35:01;;;;;;;16.70;3.40;;;;;;;7.61;46.73;102305.25;7390477;19;20030;-58
2022/12/27 12:37:48;;;;;;;12.05;3.35;;;;;;;7.68;46.55;102304.91;7390592;19;20006;-57
2022/12/27 12:40:51;;;;;;;14.30;3.40;;;;;;;7.57;46.87;102306.91;7392414;19;20019;-57
2022/12/27 12:43:51;;;;;;;11.18;2.95;;;;;;;7.52;46.50;102294.16;7390851;19;20471;-57
2022/12/27 12:46:50;;;;;;;11.93;3.40;;;;;;;7.68;46.61;102300.31;7392847;19;19997;-58
2022/12/27 12:49:37;;;;;;;14.07;3.40;;;;;;;7.73;46.37;102299.44;7391909;19;20038;-58
2022/12/27 12:52:15;;;;;;;16.73;3.55;;;;;;;7.57;46.84;102290.59;7392376;19;19999;-58
2022/12/27 12:55:11;;;;;;;15.23;4.10;;;;;;;7.68;46.34;102303.03;7390074;19;20463;-58
2022/12/27 12:58:08;;;;;;;16.15;3.75;;;;;;;7.66;46.72;102297.03;7388072;19;20015;-58
2022/12/27 13:00:35;;;;;;;11.52;3.40;;;;;;;7.82;46.59;102299.66;7391560;19;20002;-57
2022/12/27 13:03:36;;;;;;;12.23;3.40;;;;;;;7.71;46.60;102307.06;7391413;19;20423;-58
2022/12/27 13:06:11;;;;;;;11.40;3.50;;;;;;;7.76;46.33;102293.44;7391531;19;20015;-57
2022/12/27 13:08:42;;;;;;;14.80;3.78;;;;;;;7.81;46.56;102293.38;7391842;19;20003;-57
2022/12/27 13:11:19;;;;;;;12.32;3.20;;;;;;;7.87;46.47;102294.16;7391393;19;19999;-57
2022/12/27 13:14:26;;;;;;;12.73;3.70;;;;;;;7.96;46.09;102295.97;7389697;19;20066;-58
2022/12/27 13:17:08;;;;;;;11.50;3.10;;;;;;;8.03;46.22;102290.19;7388439;19;20029;-58
2022/12/27 13:19:53;;;;;;;12.32;3.25;;;;;;;7.95;46.00;102285.38;7390199;19;20318;-57
2022/12/27 13:22:43;;;;;;;11.32;3.20;;;;;;;7.95;46.35;102285.38;7390819;19;20003;-58
2022/12/27 13:25:41;;;;;;;11.85;3.17;;;;;;;7.97;45.75;102283.19;7388681;19;20002;-58
2022/12/27 13:28:26;;;;;;;12.90;2.85;;;;;;;7.88;45.72;102279.47;7391234;19;20008;-58
2022/12/27 13:30:58;;;;;;;;;;;;;;;7.71;46.03;102272.56;7391246;19;20002;-58